Wetterstation Vordersexau
Wetterdaten: Woche 30.05.16 - 05.06.16 (KW22)
Datum Zeit Temp. A. Feuchte A. Luftdruck Regen Wind Richtung Taupunkt Windchill Windben
30.05.2016 00:00 14,6 C 84 % 1004,9 hPa 0,4 l/m 11,7 km/h S 11,9 C 11,9 C 6,5 km/h
30.05.2016 01:00 14,5 C 83 % 1004,2 hPa 0,8 l/m 14,3 km/h W-SW 11,6 C 10,8 C 7,9 km/h
30.05.2016 02:00 14,2 C 81 % 1004,0 hPa 1,7 l/m 0,0 km/h S-SW 11,0 C 14,2 C 0,0 km/h
30.05.2016 03:00 14,1 C 80 % 1003,5 hPa 0,0 l/m 3,2 km/h S 10,7 C 14,1 C 1,8 km/h
30.05.2016 04:00 13,9 C 81 % 1003,5 hPa 0,8 l/m 3,2 km/h S-SO 10,7 C 13,9 C 1,8 km/h
30.05.2016 05:00 13,9 C 80 % 1003,5 hPa 0,0 l/m 21,4 km/h SO 10,5 C 8,0 C 11,9 km/h
30.05.2016 06:00 13,6 C 81 % 1003,6 hPa 0,4 l/m 7,1 km/h SW 10,4 C 13,2 C 4,0 km/h
30.05.2016 07:00 13,5 C 81 % 1003,6 hPa 0,4 l/m 25,9 km/h S-SW 10,3 C 6,4 C 14,4 km/h
30.05.2016 08:00 13,7 C 82 % 1003,7 hPa 0,4 l/m 13,6 km/h S-SO 10,7 C 10,1 C 7,6 km/h
30.05.2016 09:00 13,8 C 83 % 1003,8 hPa 0,4 l/m 16,2 km/h S-SW 11,0 C 9,3 C 9,0 km/h
30.05.2016 10:00 15,3 C 86 % 1003,9 hPa 0,0 l/m 15,6 km/h S 13,0 C 11,4 C 8,6 km/h
30.05.2016 11:00 14,9 C 86 % 1004,1 hPa 0,0 l/m 5,8 km/h SW 12,6 C 14,9 C 3,2 km/h
30.05.2016 12:00 15,8 C 85 % 1004,1 hPa 0,4 l/m 18,1 km/h SW 13,3 C 11,3 C 10,1 km/h
30.05.2016 13:00 16,7 C 82 % 1004,2 hPa 0,0 l/m 16,2 km/h W-SW 13,6 C 12,9 C 9,0 km/h
30.05.2016 14:00 14,9 C 85 % 1004,9 hPa 0,4 l/m 11,0 km/h S 12,4 C 12,6 C 6,1 km/h
30.05.2016 15:00 14,6 C 86 % 1005,1 hPa 0,4 l/m 16,8 km/h S-SW 12,3 C 10,1 C 9,4 km/h
30.05.2016 16:00 15,8 C 85 % 1004,9 hPa 0,0 l/m 0,0 km/h S 13,3 C 15,8 C 0,0 km/h
30.05.2016 17:00 16,9 C 80 % 1005,0 hPa 0,0 l/m 20,7 km/h W-SW 13,4 C 12,0 C 11,5 km/h
30.05.2016 18:00 18,1 C 74 % 1005,4 hPa 0,0 l/m 19,4 km/h S-SW 13,4 C 13,9 C 10,8 km/h
30.05.2016 19:00 15,1 C 83 % 1005,8 hPa 0,0 l/m 15,6 km/h SW 12,2 C 11,1 C 8,6 km/h
30.05.2016 20:00 15,2 C 82 % 1006,1 hPa 0,0 l/m 20,1 km/h S-SW 12,1 C 10,0 C 11,2 km/h
30.05.2016 21:00 14,6 C 83 % 1006,1 hPa 0,0 l/m 15,6 km/h W 11,7 C 10,5 C 8,6 km/h
30.05.2016 22:00 14,4 C 83 % 1006,6 hPa 0,0 l/m 24,6 km/h S-SW 11,5 C 7,9 C 13,7 km/h
30.05.2016 23:00 14,5 C 81 % 1006,5 hPa 0,0 l/m 7,8 km/h S-SW 11,3 C 13,7 C 4,3 km/h
31.05.2016 00:00 14,3 C 79 % 1006,3 hPa 0,0 l/m 24,0 km/h S-SW 10,7 C 7,9 C 13,3 km/h
31.05.2016 01:00 13,3 C 81 % 1006,2 hPa 0,0 l/m 0,0 km/h S 10,1 C 13,3 C 0,0 km/h
31.05.2016 02:00 13,2 C 81 % 1006,0 hPa 0,0 l/m 0,0 km/h W-SW 10,0 C 13,2 C 0,0 km/h
31.05.2016 03:00 13,6 C 81 % 1006,1 hPa 0,0 l/m 3,2 km/h W 10,4 C 13,6 C 1,8 km/h
31.05.2016 04:00 13,9 C 80 % 1006,5 hPa 0,0 l/m 11,7 km/h S-SO 10,5 C 11,1 C 6,5 km/h
31.05.2016 05:00 13,4 C 82 % 1006,7 hPa 0,0 l/m 1,9 km/h W 10,4 C 13,4 C 1,1 km/h
31.05.2016 06:00 14,3 C 79 % 1007,1 hPa 0,0 l/m 3,2 km/h W-SW 10,7 C 14,3 C 1,8 km/h
31.05.2016 07:00 14,9 C 74 % 1007,5 hPa 0,0 l/m 17,5 km/h W 10,3 C 10,3 C 9,7 km/h
31.05.2016 08:00 15,9 C 75 % 1008,0 hPa 0,0 l/m 8,4 km/h W-SW 11,5 C 14,8 C 4,7 km/h
31.05.2016 09:00 16,6 C 74 % 1008,3 hPa 0,0 l/m 21,4 km/h S-SW 11,9 C 11,5 C 11,9 km/h
31.05.2016 10:00 18,1 C 68 % 1008,6 hPa 0,0 l/m 14,9 km/h W 12,1 C 15,0 C 8,3 km/h
31.05.2016 11:00 19,1 C 67 % 1008,8 hPa 0,0 l/m 24,0 km/h W-NW 12,8 C 14,3 C 13,3 km/h
31.05.2016 12:00 20,3 C 61 % 1009,1 hPa 0,0 l/m 24,0 km/h W 12,5 C 15,9 C 13,3 km/h
31.05.2016 13:00 19,2 C 64 % 1009,2 hPa 0,0 l/m 3,9 km/h W-NW 12,2 C 19,2 C 2,2 km/h
31.05.2016 14:00 19,3 C 66 % 1009,2 hPa 0,0 l/m 7,8 km/h W-NW 12,8 C 18,7 C 4,3 km/h
31.05.2016 15:00 21,9 C 60 % 1008,8 hPa 0,0 l/m 28,5 km/h W 13,8 C 17,5 C 15,8 km/h
31.05.2016 16:00 24,4 C 54 % 1009,0 hPa 0,0 l/m 11,0 km/h W 14,5 C 23,3 C 6,1 km/h
31.05.2016 17:00 24,2 C 49 % 1009,0 hPa 0,0 l/m 10,4 km/h W 12,8 C 23,2 C 5,8 km/h
31.05.2016 18:00 22,4 C 54 % 1009,3 hPa 0,0 l/m 19,4 km/h W 12,6 C 19,4 C 10,8 km/h
31.05.2016 19:00 19,3 C 58 % 1009,7 hPa 0,0 l/m 5,8 km/h W 10,8 C 19,3 C 3,2 km/h
31.05.2016 20:00 18,2 C 63 % 1010,4 hPa 0,0 l/m 14,3 km/h S 11,0 C 15,3 C 7,9 km/h
31.05.2016 21:00 15,4 C 71 % 1010,9 hPa 0,0 l/m 0,0 km/h S-SO 10,2 C 15,4 C 0,0 km/h
31.05.2016 22:00 13,3 C 78 % 1011,4 hPa 0,0 l/m 0,0 km/h S-SO 9,5 C 13,3 C 0,0 km/h
31.05.2016 23:00 12,4 C 81 % 1011,8 hPa 0,0 l/m 0,0 km/h S-SO 9,2 C 12,4 C 0,0 km/h
01.06.2016 00:00 11,5 C 83 % 1012,3 hPa 0,0 l/m 0,0 km/h NO 8,7 C 11,5 C 0,0 km/h
01.06.2016 01:00 10,9 C 84 % 1012,4 hPa 0,0 l/m 0,0 km/h NO 8,3 C 10,9 C 0,0 km/h
01.06.2016 02:00 10,4 C 85 % 1012,1 hPa 0,0 l/m 0,0 km/h NO 8,0 C 10,4 C 0,0 km/h
01.06.2016 03:00 10,3 C 85 % 1012,3 hPa 0,0 l/m 0,0 km/h NO 7,9 C 10,3 C 0,0 km/h
01.06.2016 04:00 9,3 C 86 % 1012,1 hPa 0,0 l/m 0,0 km/h O-SO 7,1 C 9,3 C 0,0 km/h
01.06.2016 05:00 8,9 C 86 % 1012,1 hPa 0,0 l/m 0,0 km/h O-SO 6,7 C 8,9 C 0,0 km/h
01.06.2016 06:00 9,1 C 86 % 1012,4 hPa 0,0 l/m 0,0 km/h NO 6,9 C 9,1 C 0,0 km/h
01.06.2016 07:00 13,9 C 82 % 1012,8 hPa 0,0 l/m 0,0 km/h SO 10,9 C 13,9 C 0,0 km/h
01.06.2016 08:00 17,0 C 82 % 1013,2 hPa 0,0 l/m 0,0 km/h W-SW 13,9 C 17,0 C 0,0 km/h
01.06.2016 09:00 22,6 C 60 % 1012,8 hPa 0,0 l/m 0,0 km/h SW 14,4 C 22,6 C 0,0 km/h
01.06.2016 10:00 22,9 C 57 % 1012,6 hPa 0,0 l/m 2,6 km/h W 13,9 C 22,9 C 1,4 km/h
01.06.2016 11:00 23,1 C 54 % 1012,3 hPa 0,0 l/m 3,9 km/h W-SW 13,3 C 23,1 C 2,2 km/h
01.06.2016 12:00 23,4 C 53 % 1012,1 hPa 0,0 l/m 0,0 km/h S 13,3 C 23,4 C 0,0 km/h
01.06.2016 13:00 24,8 C 51 % 1011,7 hPa 0,0 l/m 0,0 km/h W 14,0 C 24,8 C 0,0 km/h
01.06.2016 14:00 23,9 C 51 % 1011,3 hPa 0,0 l/m 0,0 km/h NW 13,1 C 23,9 C 0,0 km/h
01.06.2016 15:00 26,0 C 45 % 1011,0 hPa 0,0 l/m 0,0 km/h N 13,1 C 26,0 C 0,0 km/h
01.06.2016 16:00 24,4 C 49 % 1010,5 hPa 0,0 l/m 0,0 km/h N-NO 13,0 C 24,4 C 0,0 km/h
01.06.2016 17:00 23,1 C 53 % 1010,3 hPa 0,0 l/m 0,0 km/h N 13,0 C 23,1 C 0,0 km/h
01.06.2016 18:00 21,5 C 57 % 1010,3 hPa 0,0 l/m 0,0 km/h N 12,6 C 21,5 C 0,0 km/h
01.06.2016 19:00 20,8 C 62 % 1010,3 hPa 0,0 l/m 0,0 km/h N 13,2 C 20,8 C 0,0 km/h
01.06.2016 20:00 18,8 C 69 % 1010,0 hPa 0,0 l/m 0,0 km/h N 13,0 C 18,8 C 0,0 km/h
01.06.2016 21:00 17,4 C 75 % 1010,5 hPa 0,0 l/m 0,0 km/h N 12,9 C 17,4 C 0,0 km/h
01.06.2016 22:00 16,5 C 78 % 1010,6 hPa 0,0 l/m 0,0 km/h N 12,6 C 16,5 C 0,0 km/h
01.06.2016 23:00 15,5 C 82 % 1010,4 hPa 0,0 l/m 0,0 km/h N 12,4 C 15,5 C 0,0 km/h
02.06.2016 00:00 15,2 C 84 % 1010,3 hPa 0,0 l/m 0,0 km/h N-NO 12,5 C 15,2 C 0,0 km/h
02.06.2016 01:00 14,9 C 84 % 1009,7 hPa 0,0 l/m 0,0 km/h SO 12,2 C 14,9 C 0,0 km/h
02.06.2016 02:00 14,5 C 85 % 1009,3 hPa 0,4 l/m 0,0 km/h SO 12,0 C 14,5 C 0,0 km/h
02.06.2016 03:00 14,3 C 85 % 1009,0 hPa 0,0 l/m 0,0 km/h S-SO 11,8 C 14,3 C 0,0 km/h
02.06.2016 04:00 13,6 C 85 % 1008,9 hPa 0,4 l/m 0,0 km/h S-SO 11,1 C 13,6 C 0,0 km/h
02.06.2016 05:00 13,4 C 85 % 1008,6 hPa 0,4 l/m 0,0 km/h S-SW 10,9 C 13,4 C 0,0 km/h
02.06.2016 06:00 13,8 C 85 % 1008,5 hPa 0,4 l/m 1,3 km/h S 11,3 C 13,8 C 0,7 km/h
02.06.2016 07:00 14,8 C 85 % 1008,7 hPa 0,0 l/m 1,9 km/h S-SO 12,3 C 14,8 C 1,1 km/h
02.06.2016 08:00 15,6 C 84 % 1008,8 hPa 0,0 l/m 5,2 km/h S-SO 12,9 C 15,6 C 2,9 km/h
02.06.2016 09:00 17,3 C 78 % 1008,7 hPa 0,0 l/m 10,4 km/h SW 13,4 C 15,5 C 5,8 km/h
02.06.2016 10:00 17,0 C 76 % 1008,8 hPa 0,0 l/m 1,3 km/h W-SW 12,7 C 17,0 C 0,7 km/h
02.06.2016 11:00 20,8 C 65 % 1008,3 hPa 0,0 l/m 24,6 km/h W-SW 14,0 C 16,5 C 13,7 km/h
02.06.2016 12:00 18,2 C 70 % 1008,5 hPa 0,0 l/m 14,3 km/h W 12,6 C 15,3 C 7,9 km/h
02.06.2016 13:00 18,8 C 71 % 1008,4 hPa 0,0 l/m 5,8 km/h N-NW 13,4 C 18,8 C 3,2 km/h
02.06.2016 14:00 19,1 C 69 % 1008,1 hPa 0,0 l/m 0,0 km/h W 13,3 C 19,1 C 0,0 km/h
02.06.2016 15:00 19,9 C 69 % 1008,1 hPa 0,0 l/m 0,0 km/h W-SW 14,0 C 19,9 C 0,0 km/h
02.06.2016 16:00 19,8 C 67 % 1008,0 hPa 0,0 l/m 1,9 km/h S 13,5 C 19,8 C 1,1 km/h
02.06.2016 17:00 18,9 C 72 % 1008,0 hPa 0,0 l/m 0,0 km/h W-SW 13,7 C 18,9 C 0,0 km/h
02.06.2016 18:00 18,9 C 70 % 1007,9 hPa 0,0 l/m 7,8 km/h W-SW 13,3 C 18,3 C 4,3 km/h
02.06.2016 19:00 18,4 C 71 % 1008,2 hPa 0,0 l/m 0,0 km/h W-SW 13,0 C 18,4 C 0,0 km/h
02.06.2016 20:00 17,4 C 74 % 1008,3 hPa 0,0 l/m 0,0 km/h W 12,7 C 17,4 C 0,0 km/h
02.06.2016 21:00 16,1 C 79 % 1008,6 hPa 0,0 l/m 0,0 km/h W-SW 12,5 C 16,1 C 0,0 km/h
02.06.2016 22:00 15,5 C 80 % 1008,8 hPa 0,0 l/m 0,0 km/h W 12,1 C 15,5 C 0,0 km/h
02.06.2016 23:00 15,2 C 82 % 1009,0 hPa 0,0 l/m 0,0 km/h O-SO 12,1 C 15,2 C 0,0 km/h
03.06.2016 00:00 14,9 C 83 % 1009,2 hPa 0,0 l/m 0,0 km/h NO 12,0 C 14,9 C 0,0 km/h
03.06.2016 01:00 14,5 C 84 % 1009,1 hPa 0,0 l/m 0,0 km/h NO 11,8 C 14,5 C 0,0 km/h
03.06.2016 02:00 14,2 C 85 % 1008,9 hPa 0,0 l/m 0,0 km/h NO 11,7 C 14,2 C 0,0 km/h
03.06.2016 03:00 13,5 C 85 % 1008,6 hPa 0,0 l/m 0,0 km/h NO 11,0 C 13,5 C 0,0 km/h
03.06.2016 04:00 13,8 C 85 % 1008,6 hPa 0,0 l/m 0,0 km/h NO 11,3 C 13,8 C 0,0 km/h
03.06.2016 05:00 13,9 C 86 % 1008,8 hPa 0,0 l/m 0,0 km/h O 11,6 C 13,9 C 0,0 km/h
03.06.2016 06:00 14,1 C 85 % 1008,6 hPa 0,0 l/m 0,0 km/h O 11,6 C 14,1 C 0,0 km/h
03.06.2016 07:00 14,7 C 85 % 1008,9 hPa 0,4 l/m 0,0 km/h O 12,2 C 14,7 C 0,0 km/h
03.06.2016 08:00 15,9 C 85 % 1009,0 hPa 0,4 l/m 0,0 km/h W 13,4 C 15,9 C 0,0 km/h
03.06.2016 09:00 18,4 C 80 % 1009,1 hPa 0,0 l/m 1,9 km/h W-SW 14,9 C 18,4 C 1,1 km/h
03.06.2016 10:00 21,7 C 70 % 1009,0 hPa 0,0 l/m 0,0 km/h W 16,0 C 21,7 C 0,0 km/h
03.06.2016 11:00 19,4 C 72 % 1008,9 hPa 0,0 l/m 0,0 km/h SO 14,2 C 19,4 C 0,0 km/h
03.06.2016 12:00 20,7 C 70 % 1008,7 hPa 0,0 l/m 0,0 km/h O-SO 15,0 C 20,7 C 0,0 km/h
03.06.2016 13:00 20,3 C 75 % 1008,6 hPa 0,0 l/m 22,7 km/h SO 15,7 C 16,1 C 12,6 km/h
03.06.2016 14:00 21,6 C 70 % 1008,2 hPa 0,0 l/m 3,9 km/h SO 15,9 C 21,6 C 2,2 km/h
03.06.2016 15:00 21,4 C 67 % 1008,2 hPa 0,0 l/m 9,1 km/h S-SW 15,0 C 20,5 C 5,0 km/h
03.06.2016 16:00 27,2 C 54 % 1007,8 hPa 0,0 l/m 14,3 km/h W 17,1 C 26,0 C 7,9 km/h
03.06.2016 17:00 22,8 C 63 % 1007,5 hPa 0,0 l/m 0,0 km/h W 15,4 C 22,8 C 0,0 km/h
03.06.2016 18:00 20,1 C 69 % 1007,6 hPa 0,0 l/m 7,8 km/h W-NW 14,2 C 19,5 C 4,3 km/h
03.06.2016 19:00 17,9 C 77 % 1008,1 hPa 0,0 l/m 0,0 km/h W 13,8 C 17,9 C 0,0 km/h
03.06.2016 20:00 17,5 C 79 % 1008,4 hPa 0,0 l/m 0,0 km/h W 13,8 C 17,5 C 0,0 km/h
03.06.2016 21:00 15,9 C 81 % 1008,7 hPa 0,0 l/m 0,0 km/h NW 12,6 C 15,9 C 0,0 km/h
03.06.2016 22:00 15,9 C 83 % 1009,1 hPa 0,0 l/m 0,0 km/h NW 13,0 C 15,9 C 0,0 km/h
03.06.2016 23:00 15,6 C 84 % 1009,3 hPa 0,0 l/m 0,0 km/h S-SW 12,9 C 15,6 C 0,0 km/h
04.06.2016 00:00 15,6 C 85 % 1009,6 hPa 0,0 l/m 0,0 km/h S-SW 13,1 C 15,6 C 0,0 km/h
04.06.2016 01:00 15,3 C 85 % 1009,3 hPa 0,0 l/m 0,0 km/h W 12,8 C 15,3 C 0,0 km/h
04.06.2016 02:00 15,1 C 84 % 1009,4 hPa 0,0 l/m 0,0 km/h W 12,4 C 15,1 C 0,0 km/h
04.06.2016 03:00 14,9 C 84 % 1009,2 hPa 0,0 l/m 9,7 km/h W 12,2 C 13,1 C 5,4 km/h
04.06.2016 04:00 14,4 C 82 % 1009,2 hPa 1,2 l/m 0,0 km/h W 11,4 C 14,4 C 0,0 km/h
04.06.2016 05:00 14,2 C 81 % 1009,3 hPa 0,4 l/m 0,0 km/h W-SW 11,0 C 14,2 C 0,0 km/h
04.06.2016 06:00 13,9 C 79 % 1009,3 hPa 2,1 l/m 0,0 km/h W-NW 10,3 C 13,9 C 0,0 km/h
04.06.2016 07:00 13,8 C 78 % 1009,7 hPa 1,7 l/m 0,0 km/h W-SW 10,0 C 13,8 C 0,0 km/h
04.06.2016 08:00 13,7 C 78 % 1010,1 hPa 1,7 l/m 0,0 km/h W-SW 9,9 C 13,7 C 0,0 km/h
04.06.2016 09:00 13,9 C 77 % 1010,4 hPa 2,5 l/m 4,5 km/h N 9,9 C 13,9 C 2,5 km/h
04.06.2016 10:00 14,0 C 77 % 1010,6 hPa 2,1 l/m 0,0 km/h S-SW 10,0 C 14,0 C 0,0 km/h
04.06.2016 11:00 15,0 C 77 % 1010,7 hPa 2,9 l/m 3,2 km/h W 11,0 C 15,0 C 1,8 km/h
04.06.2016 12:00 17,9 C 84 % 1010,9 hPa 0,0 l/m 9,7 km/h W-SW 15,2 C 16,4 C 5,4 km/h
04.06.2016 13:00 20,9 C 78 % 1010,8 hPa 0,0 l/m 9,1 km/h W 16,9 C 19,9 C 5,0 km/h
04.06.2016 14:00 20,2 C 76 % 1010,5 hPa 0,0 l/m 0,0 km/h S 15,8 C 20,2 C 0,0 km/h
04.06.2016 15:00 23,9 C 71 % 1010,1 hPa 0,0 l/m 20,1 km/h S 18,3 C 21,2 C 11,2 km/h
04.06.2016 16:00 21,3 C 70 % 1010,0 hPa 0,0 l/m 0,0 km/h NW 15,6 C 21,3 C 0,0 km/h
04.06.2016 17:00 18,9 C 78 % 1010,3 hPa 0,4 l/m 0,0 km/h S 15,0 C 18,9 C 0,0 km/h
04.06.2016 18:00 21,2 C 78 % 1010,1 hPa 0,4 l/m 0,0 km/h O-SO 17,2 C 21,2 C 0,0 km/h
04.06.2016 19:00 23,3 C 65 % 1010,5 hPa 0,0 l/m 0,0 km/h SO 16,3 C 23,3 C 0,0 km/h
04.06.2016 20:00 18,8 C 76 % 1010,9 hPa 0,0 l/m 0,0 km/h N 14,5 C 18,8 C 0,0 km/h
04.06.2016 21:00 16,9 C 82 % 1011,8 hPa 0,0 l/m 0,0 km/h N 13,8 C 16,9 C 0,0 km/h
04.06.2016 22:00 15,6 C 84 % 1012,3 hPa 0,0 l/m 0,0 km/h N-NO 12,9 C 15,6 C 0,0 km/h
04.06.2016 23:00 14,4 C 85 % 1012,6 hPa 0,0 l/m 0,0 km/h N-NO 11,9 C 14,4 C 0,0 km/h
05.06.2016 00:00 14,5 C 85 % 1013,0 hPa 0,0 l/m 0,0 km/h N-NO 12,0 C 14,5 C 0,0 km/h
05.06.2016 01:00 14,4 C 85 % 1013,0 hPa 0,0 l/m 0,0 km/h N-NO 11,9 C 14,4 C 0,0 km/h
05.06.2016 02:00 14,2 C 84 % 1012,8 hPa 0,0 l/m 0,0 km/h N-NO 11,5 C 14,2 C 0,0 km/h
05.06.2016 03:00 13,8 C 84 % 1012,7 hPa 0,0 l/m 0,0 km/h N-NO 11,1 C 13,8 C 0,0 km/h
05.06.2016 04:00 14,1 C 84 % 1013,0 hPa 0,0 l/m 0,0 km/h SO 11,4 C 14,1 C 0,0 km/h
05.06.2016 05:00 13,8 C 84 % 1013,1 hPa 0,0 l/m 0,0 km/h O-NO 11,1 C 13,8 C 0,0 km/h
05.06.2016 06:00 13,6 C 83 % 1013,6 hPa 0,0 l/m 0,0 km/h SO 10,8 C 13,6 C 0,0 km/h
05.06.2016 07:00 15,2 C 81 % 1013,8 hPa 0,0 l/m 0,0 km/h NO 12,0 C 15,2 C 0,0 km/h
05.06.2016 08:00 19,8 C 85 % 1014,3 hPa 0,0 l/m 0,0 km/h W 17,2 C 19,8 C 0,0 km/h
05.06.2016 09:00 19,7 C 78 % 1014,5 hPa 0,0 l/m 0,0 km/h N 15,8 C 19,7 C 0,0 km/h
05.06.2016 10:00 22,2 C 69 % 1014,4 hPa 0,0 l/m 2,6 km/h W 16,2 C 22,2 C 1,4 km/h
05.06.2016 11:00 23,2 C 69 % 1014,6 hPa 0,0 l/m 0,0 km/h W 17,2 C 23,2 C 0,0 km/h
05.06.2016 12:00 22,2 C 70 % 1014,7 hPa 0,0 l/m 0,0 km/h N 16,5 C 22,2 C 0,0 km/h
05.06.2016 13:00 21,1 C 73 % 1014,7 hPa 0,0 l/m 0,0 km/h O-SO 16,1 C 21,1 C 0,0 km/h
05.06.2016 14:00 19,2 C 77 % 1014,7 hPa 0,8 l/m 8,4 km/h O-NO 15,1 C 18,4 C 4,7 km/h
05.06.2016 15:00 19,6 C 81 % 1014,2 hPa 0,0 l/m 0,0 km/h W 16,2 C 19,6 C 0,0 km/h
05.06.2016 16:00 25,4 C 66 % 1014,0 hPa 0,0 l/m 0,0 km/h W-SW 18,6 C 25,4 C 0,0 km/h
05.06.2016 17:00 30,0 C 50 % 1013,9 hPa 0,0 l/m 4,5 km/h W 18,4 C 30,0 C 2,5 km/h
05.06.2016 18:00 23,1 C 61 % 1014,0 hPa 0,0 l/m 0,0 km/h O-SO 15,2 C 23,1 C 0,0 km/h
05.06.2016 19:00 20,1 C 77 % 1014,2 hPa 1,2 l/m 0,0 km/h SO 15,9 C 20,1 C 0,0 km/h
05.06.2016 20:00 18,1 C 84 % 1014,4 hPa 0,0 l/m 0,0 km/h O-SO 15,4 C 18,1 C 0,0 km/h
05.06.2016 21:00 16,8 C 85 % 1015,3 hPa 0,0 l/m 0,0 km/h O-SO 14,3 C 16,8 C 0,0 km/h
05.06.2016 22:00 15,6 C 84 % 1015,8 hPa 0,0 l/m 6,5 km/h O-SO 12,9 C 15,6 C 3,6 km/h
05.06.2016 23:00 16,1 C 84 % 1016,2 hPa 0,4 l/m 3,2 km/h SO 13,4 C 16,1 C 1,8 km/h
Min-Datum _ 01.06.16 01.06.16 30.05.16 - 30.05.16 - 01.06.16 30.05.16 30.05.16
_ Min-Zeit 05:41 15:41 03:41 - 02:41 - 05:41 07:41 02:41
Minimum _ 8,9 C 45 % 1003,5 hPa - 0,0 km/h - 6,7 C 6,4 C 0,0 km/h
Max-Datum _ 05.06.16 30.05.16 05.06.16 04.06.16 31.05.16 - 05.06.16 05.06.16 31.05.16
_ Max-Zeit 17:41 10:41 23:41 11:41 15:41 - 16:41 17:41 15:41
Maximum _ 30,0 C 86 % 1016,2 hPa 2,9 l/m 28,5 km/h
W
- 18,6 C 30,0 C 15,8 km/h
W
Durchschnitt _ 17,1 C 76 % 1009,5 hPa #26,9 l/m 4,8 km/h W 12,7 C 16,2 C 2,7 km/h
www.sexauwetter.de